Time;durP1;ratioP1;P1;durP2;ratioP2;P2;SDS_P1;SDS_P2;PMS_P1;PMS_P2;Temp;Humidity;BMP_temperature;BMP_pressure;BME280_temperature;BME280_humidity;BME280_pressure;Samples;Min_cycle;Max_cycle;Signal;HPM_P1;HPM_P2
2021/08/30 00:00:27;;;;;;;15.15;9.43;;;;;;;16.13;100.00;100667.47;5187527;28;20026;-79
2021/08/30 00:02:58;;;;;;;14.93;8.82;;;;;;;16.18;100.00;100677.75;5200343;28;20116;-80
2021/08/30 00:05:28;;;;;;;13.45;8.82;;;;;;;16.07;100.00;100661.69;5196997;28;20101;-79
2021/08/30 00:07:59;;;;;;;12.35;8.55;;;;;;;16.13;100.00;100667.47;5179286;28;20515;-79
2021/08/30 00:10:29;;;;;;;14.13;8.98;;;;;;;16.20;100.00;100667.97;5179453;28;20026;-79
2021/08/30 00:12:59;;;;;;;12.90;9.10;;;;;;;16.07;100.00;100665.16;5196550;28;20103;-80
2021/08/30 00:15:30;;;;;;;15.10;8.80;;;;;;;16.09;100.00;100668.59;5176351;28;20026;-79
2021/08/30 00:18:00;;;;;;;14.40;9.50;;;;;;;16.22;100.00;100677.47;5202002;28;20021;-79
2021/08/30 00:20:30;;;;;;;11.90;8.75;;;;;;;16.14;100.00;100671.81;5198226;28;20060;-80
2021/08/30 00:23:01;;;;;;;13.70;8.38;;;;;;;16.15;100.00;100662.97;5200839;28;20075;-79
2021/08/30 00:25:31;;;;;;;11.60;8.43;;;;;;;16.18;100.00;100670.69;5198641;28;20032;-78
2021/08/30 00:28:02;;;;;;;13.65;8.73;;;;;;;16.19;100.00;100663.63;5180873;28;20024;-79
2021/08/30 00:30:32;;;;;;;12.07;8.93;;;;;;;16.19;100.00;100659.19;5194436;28;20025;-80
2021/08/30 00:33:03;;;;;;;13.38;8.07;;;;;;;16.20;100.00;100668.81;5178761;28;20163;-80
2021/08/30 00:35:33;;;;;;;11.30;8.00;;;;;;;16.16;100.00;100664.66;5181388;28;20084;-79
2021/08/30 00:38:07;;;;;;;12.90;9.00;;;;;;;16.20;100.00;100674.09;5201611;28;20036;-79
2021/08/30 00:40:38;;;;;;;11.70;8.27;;;;;;;16.19;100.00;100677.66;5187243;28;20084;-80
2021/08/30 00:43:09;;;;;;;13.45;8.57;;;;;;;16.24;100.00;100666.84;5199433;28;20088;-79
2021/08/30 00:45:39;;;;;;;10.40;7.50;;;;;;;16.27;100.00;100678.09;5201093;28;20030;-79
2021/08/30 00:48:09;;;;;;;12.50;8.40;;;;;;;16.26;100.00;100671.13;5187839;28;20444;-79
2021/08/30 00:50:40;;;;;;;12.57;8.52;;;;;;;16.18;100.00;100672.50;5192286;28;20041;-79
2021/08/30 00:53:10;;;;;;;12.57;7.82;;;;;;;16.27;100.00;100679.88;5180899;28;20029;-79
2021/08/30 00:55:41;;;;;;;11.43;7.90;;;;;;;16.21;100.00;100681.06;5190223;28;20033;-79
2021/08/30 00:58:11;;;;;;;12.93;8.63;;;;;;;16.13;100.00;100677.16;5178816;28;20042;-79
2021/08/30 01:00:42;;;;;;;10.40;7.95;;;;;;;16.19;100.00;100672.38;5172098;28;20021;-79
2021/08/30 01:03:12;;;;;;;11.18;7.75;;;;;;;16.18;100.00;100680.41;5182203;28;20026;-79
2021/08/30 01:05:49;;;;;;;10.75;7.93;;;;;;;16.21;100.00;100675.78;5202344;28;20018;-79
2021/08/30 01:08:32;;;;;;;12.30;8.38;;;;;;;16.12;100.00;100678.97;5184780;28;20038;-79
2021/08/30 01:11:07;;;;;;;13.63;8.98;;;;;;;16.13;100.00;100675.38;5181708;28;20035;-79
2021/08/30 01:13:50;;;;;;;11.05;8.35;;;;;;;16.22;100.00;100677.47;5186790;28;20036;-78
2021/08/30 01:16:23;;;;;;;13.00;8.65;;;;;;;16.17;100.00;100679.53;5176190;28;20034;-79
2021/08/30 01:18:59;;;;;;;11.65;8.05;;;;;;;16.29;100.00;100681.50;5197503;28;20580;-79
2021/08/30 01:21:37;;;;;;;10.98;7.97;;;;;;;16.19;100.00;100690.00;5201673;28;20030;-80
2021/08/30 01:24:15;;;;;;;10.25;7.78;;;;;;;16.19;100.00;100684.75;5175826;28;20038;-79
2021/08/30 01:26:51;;;;;;;13.82;8.25;;;;;;;16.18;100.00;100693.59;5175784;28;20029;-79
2021/08/30 01:29:51;;;;;;;12.02;8.30;;;;;;;16.08;100.00;100693.22;5174575;28;20097;-79
2021/08/30 01:32:40;;;;;;;11.85;8.43;;;;;;;16.06;100.00;100692.47;5197340;28;20046;-79
2021/08/30 01:35:13;;;;;;;12.77;9.20;;;;;;;16.13;100.00;100687.69;5180106;28;20068;-79
2021/08/30 01:37:46;;;;;;;11.65;8.23;;;;;;;16.13;100.00;100685.06;5197154;28;20044;-79
2021/08/30 01:40:20;;;;;;;11.27;8.52;;;;;;;16.17;100.00;100679.53;5183400;28;20040;-80
2021/08/30 01:42:53;;;;;;;11.00;7.88;;;;;;;16.06;100.00;100681.91;5179507;28;20404;-80
2021/08/30 01:45:26;;;;;;;11.68;8.63;;;;;;;16.09;100.00;100684.41;5198031;28;20586;-79
2021/08/30 01:48:00;;;;;;;13.40;8.88;;;;;;;16.16;100.00;100682.25;5181801;28;20033;-79
2021/08/30 01:50:32;;;;;;;13.98;8.88;;;;;;;16.19;100.00;100690.00;5181190;28;20053;-79
2021/08/30 01:53:05;;;;;;;13.63;8.50;;;;;;;16.14;100.00;100682.34;5198682;28;20411;-80
2021/08/30 01:55:50;;;;;;;11.85;8.50;;;;;;;16.10;100.00;100674.69;5200411;28;20382;-79
2021/08/30 02:00:51;;;;;;;11.45;7.97;;;;;;;16.09;100.00;100679.13;5192342;28;20029;-79
2021/08/30 02:03:25;;;;;;;11.57;8.30;;;;;;;16.03;100.00;100684.72;5198542;28;20026;-79
2021/08/30 02:05:57;;;;;;;14.18;8.20;;;;;;;16.06;100.00;100679.28;5190853;28;20021;-79
2021/08/30 02:08:29;;;;;;;10.93;7.80;;;;;;;16.03;100.00;100681.25;5179723;28;20052;-79
2021/08/30 02:11:02;;;;;;;12.07;8.13;;;;;;;15.97;100.00;100679.81;5181275;28;20056;-80
2021/08/30 02:13:33;;;;;;;14.80;8.95;;;;;;;16.09;100.00;100680.91;5180956;28;20062;-79
2021/08/30 02:16:04;;;;;;;12.95;8.25;;;;;;;16.15;100.00;100673.50;5195594;28;20051;-79
2021/08/30 02:18:52;;;;;;;12.57;8.52;;;;;;;16.07;100.00;100682.78;5181904;28;20036;-79
2021/08/30 02:21:29;;;;;;;11.23;7.63;;;;;;;16.09;100.00;100679.13;5194865;28;20064;-79
2021/08/30 02:24:09;;;;;;;10.82;7.82;;;;;;;16.06;100.00;100687.19;5200295;28;20050;-79
2021/08/30 02:26:45;;;;;;;10.95;7.70;;;;;;;16.16;100.00;100679.63;5195169;28;20327;-80
2021/08/30 02:29:20;;;;;;;12.25;8.30;;;;;;;16.07;100.00;100680.97;5194114;28;20518;-79
2021/08/30 02:31:55;;;;;;;13.00;8.00;;;;;;;16.11;100.00;100677.25;5194990;28;20030;-79
2021/08/30 02:34:27;;;;;;;12.63;8.27;;;;;;;16.17;100.00;100683.94;5191805;28;20025;-79
2021/08/30 02:36:59;;;;;;;13.68;8.65;;;;;;;16.12;100.00;100681.59;5195818;28;20298;-79
2021/08/30 02:39:31;;;;;;;10.57;7.72;;;;;;;15.99;100.00;100671.81;5182671;28;20033;-80
2021/08/30 02:42:03;;;;;;;12.40;8.40;;;;;;;16.11;100.00;100671.97;5183458;28;20029;-80
2021/08/30 02:44:33;;;;;;;12.57;7.93;;;;;;;16.01;100.00;100678.69;5199089;28;20105;-79
2021/08/30 02:47:05;;;;;;;11.30;7.88;;;;;;;16.10;100.00;100678.19;5194151;28;20309;-79
2021/08/30 02:49:39;;;;;;;12.35;7.60;;;;;;;16.07;100.00;100678.34;5198335;28;20060;-80
2021/08/30 02:52:12;;;;;;;11.35;7.40;;;;;;;16.08;100.00;100677.41;5198056;28;20034;-79
2021/08/30 02:54:45;;;;;;;12.95;7.90;;;;;;;16.05;100.00;100676.75;5202087;28;20065;-80
2021/08/30 02:57:17;;;;;;;12.27;7.43;;;;;;;16.05;100.00;100682.84;5176673;28;20029;-79
2021/08/30 02:59:50;;;;;;;9.95;7.70;;;;;;;16.05;100.00;100682.03;5171083;28;20033;-80
2021/08/30 03:02:25;;;;;;;13.45;7.28;;;;;;;16.08;100.00;100682.69;5177051;28;20083;-78
2021/08/30 03:04:57;;;;;;;9.73;7.05;;;;;;;16.15;100.00;100688.47;5175573;28;20022;-79
2021/08/30 03:07:29;;;;;;;11.73;7.50;;;;;;;16.09;100.00;100679.13;5193516;28;20108;-79
2021/08/30 03:10:00;;;;;;;9.80;6.78;;;;;;;16.08;100.00;100685.31;5197778;28;20049;-79
2021/08/30 03:12:36;;;;;;;8.90;6.57;;;;;;;15.97;100.00;100676.31;5196679;28;20068;-79
2021/08/30 03:15:11;;;;;;;10.55;6.88;;;;;;;15.94;100.00;100679.13;5196885;28;20052;-79
2021/08/30 03:17:44;;;;;;;10.85;7.15;;;;;;;15.94;100.00;100684.41;5197174;28;20395;-79
2021/08/30 03:20:17;;;;;;;11.85;6.82;;;;;;;16.03;100.00;100679.47;5197814;28;20037;-79
2021/08/30 03:22:50;;;;;;;15.13;7.25;;;;;;;15.94;100.00;100677.34;5193760;28;20432;-79
2021/08/30 03:25:26;;;;;;;12.27;7.32;;;;;;;15.96;100.00;100677.25;5192782;28;20025;-79
2021/08/30 03:27:58;;;;;;;9.73;6.60;;;;;;;15.99;100.00;100677.06;5188134;28;20033;-79
2021/08/30 03:30:29;;;;;;;10.77;6.95;;;;;;;15.92;100.00;100681.00;5166850;28;20347;-79
2021/08/30 03:33:01;;;;;;;10.25;6.78;;;;;;;15.94;100.00;100685.25;5189710;28;20035;-79
2021/08/30 03:35:33;;;;;;;10.07;6.40;;;;;;;15.95;100.00;100686.97;5184626;28;20031;-79
2021/08/30 03:38:04;;;;;;;9.95;6.57;;;;;;;15.90;100.00;100678.44;5196100;28;20033;-79
2021/08/30 03:40:36;;;;;;;9.25;6.63;;;;;;;15.90;100.00;100678.44;5172653;28;20369;-79
2021/08/30 03:43:08;;;;;;;11.52;6.20;;;;;;;15.99;100.00;100683.22;5190213;28;20030;-79
2021/08/30 03:45:39;;;;;;;9.57;6.95;;;;;;;15.89;100.00;100691.72;5170505;28;20029;-79
2021/08/30 03:48:09;;;;;;;10.30;6.22;;;;;;;15.84;100.00;100699.88;5173307;28;20022;-79
2021/08/30 03:50:40;;;;;;;8.82;6.63;;;;;;;15.95;100.00;100692.22;5176302;28;20034;-79
2021/08/30 03:53:12;;;;;;;9.30;6.43;;;;;;;15.99;100.00;100687.63;5197998;28;20077;-81
2021/08/30 03:55:42;;;;;;;9.55;6.00;;;;;;;15.98;100.00;100691.19;5176633;28;20107;-79
2021/08/30 03:58:13;;;;;;;8.63;6.15;;;;;;;15.88;100.00;100690.84;5188059;28;20465;-79
2021/08/30 04:00:44;;;;;;;9.25;6.32;;;;;;;15.95;100.00;100699.28;5198204;28;20412;-79
2021/08/30 04:03:16;;;;;;;9.35;6.38;;;;;;;15.85;100.00;100691.03;5199500;28;20029;-80
2021/08/30 04:05:48;;;;;;;9.88;6.25;;;;;;;15.82;100.00;100693.84;5178189;28;20108;-80
2021/08/30 04:08:19;;;;;;;10.05;6.88;;;;;;;15.80;100.00;100702.75;5199474;28;20133;-80
2021/08/30 04:10:50;;;;;;;8.88;6.22;;;;;;;15.86;100.00;100702.44;5181735;28;20033;-80
2021/08/30 04:13:20;;;;;;;9.10;6.53;;;;;;;15.90;100.00;100696.88;5181597;28;20037;-81
2021/08/30 04:15:50;;;;;;;9.00;6.35;;;;;;;15.93;100.00;100699.38;5200005;28;20072;-79
2021/08/30 04:18:21;;;;;;;10.07;6.18;;;;;;;15.83;100.00;100687.63;5186217;28;20036;-79
2021/08/30 04:20:51;;;;;;;8.55;6.38;;;;;;;15.90;100.00;100694.25;5184937;28;20033;-79
2021/08/30 04:23:21;;;;;;;11.52;7.18;;;;;;;15.87;100.00;100699.69;5180759;28;20026;-79
2021/08/30 04:25:51;;;;;;;11.75;6.38;;;;;;;15.93;100.00;100701.16;5203606;28;20032;-80
2021/08/30 04:28:22;;;;;;;8.13;6.30;;;;;;;15.83;100.00;100697.31;5199595;28;20195;-80
2021/08/30 04:30:53;;;;;;;10.90;6.20;;;;;;;15.92;100.00;100702.09;5178507;28;20113;-80
2021/08/30 04:33:23;;;;;;;10.02;6.80;;;;;;;15.70;100.00;100702.41;5182419;28;20040;-80
2021/08/30 04:35:53;;;;;;;10.60;6.70;;;;;;;15.87;100.00;100710.25;5179818;28;20395;-80
2021/08/30 04:38:24;;;;;;;13.15;6.82;;;;;;;15.93;100.00;100694.09;5199631;28;20276;-80
2021/08/30 04:40:54;;;;;;;9.57;6.75;;;;;;;15.94;100.00;100706.34;5179933;28;20170;-81
2021/08/30 04:43:24;;;;;;;9.40;6.68;;;;;;;15.87;100.00;100709.41;5198557;28;20111;-80
2021/08/30 04:45:55;;;;;;;9.48;6.75;;;;;;;15.83;100.00;100715.75;5179391;28;20116;-80
2021/08/30 04:48:25;;;;;;;9.65;6.38;;;;;;;15.73;100.00;100711.94;5180512;28;20498;-80
2021/08/30 04:50:55;;;;;;;10.27;6.60;;;;;;;15.80;100.00;100719.44;5179401;28;20026;-81
2021/08/30 04:53:26;;;;;;;10.60;6.35;;;;;;;15.87;100.00;100712.03;5181194;28;20037;-81
2021/08/30 04:55:56;;;;;;;8.75;6.30;;;;;;;15.93;100.00;100716.97;5173348;28;20246;-80
2021/08/30 04:58:26;;;;;;;9.15;6.03;;;;;;;15.92;100.00;100713.50;5191780;28;20081;-80
2021/08/30 05:00:57;;;;;;;10.07;6.85;;;;;;;15.96;100.00;100724.72;5174451;28;20031;-80
2021/08/30 05:03:27;;;;;;;8.75;6.20;;;;;;;15.87;100.00;100718.16;5179503;28;20045;-81
2021/08/30 05:05:57;;;;;;;8.57;6.57;;;;;;;15.87;100.00;100726.06;5180367;28;20079;-80
2021/08/30 05:08:28;;;;;;;9.45;6.70;;;;;;;15.88;100.00;100725.13;5179427;28;20308;-80
2021/08/30 05:10:58;;;;;;;9.77;6.38;;;;;;;15.88;100.00;100726.94;5179687;28;20032;-80
2021/08/30 05:13:28;;;;;;;9.10;6.35;;;;;;;15.95;100.00;100718.59;5179400;28;20345;-79
2021/08/30 05:15:59;;;;;;;10.18;6.35;;;;;;;15.92;100.00;100723.19;5180423;28;20533;-81
2021/08/30 05:18:29;;;;;;;9.63;6.55;;;;;;;15.85;100.00;100729.75;5176442;28;20487;-80
2021/08/30 05:20:59;;;;;;;11.50;6.80;;;;;;;15.86;100.00;100727.00;5195875;28;20037;-80
2021/08/30 05:23:29;;;;;;;10.25;6.97;;;;;;;15.90;100.00;100728.53;5192313;28;20022;-79
2021/08/30 05:26:00;;;;;;;10.43;7.23;;;;;;;15.98;100.00;100728.97;5170916;28;20029;-80
2021/08/30 05:28:30;;;;;;;11.05;6.93;;;;;;;16.02;100.00;100737.56;5193185;28;20302;-80
2021/08/30 05:31:00;;;;;;;9.82;6.72;;;;;;;15.97;100.00;100729.03;5194706;28;20435;-79
2021/08/30 05:33:31;;;;;;;10.98;6.95;;;;;;;15.93;100.00;100725.75;5197407;28;20025;-80
2021/08/30 05:36:01;;;;;;;9.90;6.72;;;;;;;16.01;100.00;100735.88;5178901;28;20395;-80
2021/08/30 05:38:32;;;;;;;10.27;6.70;;;;;;;16.07;100.00;100739.00;5179765;28;20029;-80
2021/08/30 05:41:02;;;;;;;9.27;6.20;;;;;;;16.02;100.00;100741.03;5195948;28;20085;-80
2021/08/30 05:43:32;;;;;;;10.52;6.63;;;;;;;16.13;100.00;100743.09;5178307;28;20491;-80
2021/08/30 05:46:03;;;;;;;9.85;6.75;;;;;;;16.05;100.00;100743.50;5194753;28;20400;-80
2021/08/30 05:48:33;;;;;;;10.75;6.30;;;;;;;16.00;100.00;100744.69;5177516;28;20036;-80
2021/08/30 05:51:04;;;;;;;10.02;6.40;;;;;;;15.95;100.00;100744.97;5176016;28;20454;-80
2021/08/30 05:53:34;;;;;;;9.45;6.82;;;;;;;16.03;100.00;100748.00;5196352;28;20036;-79
2021/08/30 05:56:05;;;;;;;10.68;6.90;;;;;;;16.08;100.00;100748.59;5175128;28;20499;-80
2021/08/30 05:58:36;;;;;;;10.52;6.70;;;;;;;16.08;100.00;100743.31;5176047;28;20022;-80
2021/08/30 06:01:07;;;;;;;9.18;6.10;;;;;;;16.21;100.00;100747.00;5194196;28;20041;-81
2021/08/30 06:03:37;;;;;;;9.63;6.60;;;;;;;16.15;100.00;100742.06;5196192;28;20030;-80
2021/08/30 06:06:07;;;;;;;9.73;6.82;;;;;;;16.19;100.00;100748.03;5197162;28;20040;-80
2021/08/30 06:08:38;;;;;;;9.30;6.45;;;;;;;16.19;100.00;100758.59;5177559;28;20499;-80
2021/08/30 06:11:08;;;;;;;9.20;6.32;;;;;;;16.20;100.00;100747.94;5197566;28;20383;-80
2021/08/30 06:13:38;;;;;;;8.93;6.38;;;;;;;16.27;100.00;100751.94;5193785;28;20407;-79
2021/08/30 06:16:09;;;;;;;9.15;6.35;;;;;;;16.35;100.00;100757.66;5179276;28;20025;-80
2021/08/30 06:18:39;;;;;;;10.35;6.75;;;;;;;16.39;100.00;100751.28;5190333;28;20032;-80
2021/08/30 06:21:09;;;;;;;10.55;6.85;;;;;;;16.31;100.00;100744.69;5173063;28;20026;-79
2021/08/30 06:23:40;;;;;;;8.93;6.60;;;;;;;16.22;100.00;100751.31;5179700;28;20017;-80
2021/08/30 06:26:10;;;;;;;9.50;6.35;;;;;;;16.24;100.00;100741.53;5194460;28;20108;-80
2021/08/30 06:28:40;;;;;;;12.70;6.78;;;;;;;16.33;100.00;100743.69;5190389;28;20229;-81
2021/08/30 06:31:11;;;;;;;10.60;6.55;;;;;;;16.38;100.00;100744.28;5190455;28;20034;-80
2021/08/30 06:33:41;;;;;;;12.65;6.72;;;;;;;16.41;100.00;100743.28;5196979;28;20030;-80
2021/08/30 06:36:11;;;;;;;10.48;6.47;;;;;;;16.43;100.00;100738.75;5176441;28;20025;-80
2021/08/30 06:38:41;;;;;;;9.57;6.15;;;;;;;16.41;100.00;100743.28;5193303;28;20064;-80
2021/08/30 06:41:12;;;;;;;13.02;7.07;;;;;;;16.42;100.00;100744.97;5179179;28;20056;-80
2021/08/30 06:43:42;;;;;;;10.05;6.32;;;;;;;16.42;100.00;100748.44;5194024;28;20085;-79
2021/08/30 06:46:13;;;;;;;10.85;6.82;;;;;;;16.50;100.00;100748.88;5197609;28;20030;-80
2021/08/30 06:48:43;;;;;;;9.35;6.50;;;;;;;16.48;100.00;100748.13;5172406;28;20041;-80
2021/08/30 06:51:13;;;;;;;11.23;6.78;;;;;;;16.63;100.00;100752.53;5189694;28;20499;-80
2021/08/30 06:53:44;;;;;;;10.30;6.68;;;;;;;16.71;100.00;100744.19;5193530;28;20018;-80
2021/08/30 06:56:15;;;;;;;8.80;5.80;;;;;;;16.78;100.00;100741.09;5196916;28;20025;-80
2021/08/30 06:58:45;;;;;;;9.30;6.47;;;;;;;16.72;100.00;100748.50;5168557;28;20313;-80
2021/08/30 07:01:15;;;;;;;10.90;6.93;;;;;;;16.63;100.00;100749.91;5189692;28;20484;-80
2021/08/30 07:03:46;;;;;;;9.90;6.38;;;;;;;16.79;100.00;100746.25;5179077;28;20593;-80
2021/08/30 07:06:16;;;;;;;8.48;6.00;;;;;;;16.77;100.00;100744.66;5192683;28;20038;-80
2021/08/30 07:08:46;;;;;;;10.00;6.53;;;;;;;16.84;100.00;100746.00;5175060;28;20075;-80
2021/08/30 07:11:17;;;;;;;9.50;6.10;;;;;;;17.05;100.00;100742.09;5196759;28;20025;-80
2021/08/30 07:13:47;;;;;;;8.77;5.63;;;;;;;17.21;100.00;100750.81;5174530;28;20292;-80
2021/08/30 07:16:17;;;;;;;9.27;6.25;;;;;;;17.36;100.00;100747.28;5197126;28;20052;-80
2021/08/30 07:18:47;;;;;;;8.48;5.95;;;;;;;17.69;100.00;100750.50;5169081;28;20088;-80
2021/08/30 07:21:18;;;;;;;9.80;6.05;;;;;;;17.86;100.00;100742.38;5171453;28;20049;-79
2021/08/30 07:23:48;;;;;;;8.80;5.60;;;;;;;17.72;100.00;100753.81;5176013;28;20024;-80
2021/08/30 07:26:19;;;;;;;8.45;5.55;;;;;;;17.70;100.00;100755.72;5178640;28;20049;-80
2021/08/30 07:28:49;;;;;;;8.38;5.95;;;;;;;17.40;100.00;100744.38;5169194;28;20439;-80
2021/08/30 07:31:20;;;;;;;8.45;5.72;;;;;;;17.34;100.00;100759.75;5171582;28;20040;-80
2021/08/30 07:33:51;;;;;;;10.10;5.80;;;;;;;17.20;100.00;100757.91;5195567;28;20438;-80
2021/08/30 07:36:22;;;;;;;8.55;5.82;;;;;;;17.41;100.00;100758.41;5175776;28;20119;-80
2021/08/30 07:38:52;;;;;;;9.65;6.25;;;;;;;17.29;100.00;100762.63;5195099;28;20484;-80
2021/08/30 07:41:23;;;;;;;7.22;5.30;;;;;;;17.37;100.00;100764.84;5175235;28;20527;-80
2021/08/30 07:43:53;;;;;;;8.88;5.70;;;;;;;17.33;100.00;100763.28;5179454;28;20067;-80
2021/08/30 07:46:24;;;;;;;9.25;5.20;;;;;;;17.30;100.00;100768.78;5198069;28;20040;-80
2021/08/30 07:48:55;;;;;;;8.45;5.13;;;;;;;17.24;100.00;100771.75;5175967;28;20048;-80
2021/08/30 07:51:25;;;;;;;10.30;5.63;;;;;;;17.22;100.00;100771.88;5174668;28;20029;-81
2021/08/30 07:53:57;;;;;;;7.68;5.50;;;;;;;17.07;100.00;100769.25;5198995;28;20107;-81
2021/08/30 07:56:28;;;;;;;7.53;5.13;;;;;;;17.08;100.00;100769.19;5181747;28;20515;-80
2021/08/30 07:58:58;;;;;;;7.45;5.38;;;;;;;17.23;100.00;100772.69;5179883;28;20030;-81
2021/08/30 08:01:28;;;;;;;8.57;5.32;;;;;;;17.18;100.00;100774.78;5195587;28;20052;-80
2021/08/30 08:03:59;;;;;;;7.70;4.82;;;;;;;17.10;100.00;100782.28;5198092;28;20040;-80
2021/08/30 08:06:29;;;;;;;6.97;5.18;;;;;;;17.36;100.00;100781.63;5198909;28;20032;-81
2021/08/30 08:09:00;;;;;;;7.63;5.20;;;;;;;17.33;100.00;100790.56;5198762;28;20022;-80
2021/08/30 08:11:31;;;;;;;8.85;5.40;;;;;;;17.60;100.00;100793.34;5181986;28;20045;-80
2021/08/30 08:14:01;;;;;;;9.05;5.05;;;;;;;17.39;100.00;100805.22;5180540;28;20037;-81
2021/08/30 08:16:31;;;;;;;9.52;5.25;;;;;;;17.46;100.00;100790.72;5199106;28;20029;-80
2021/08/30 08:19:02;;;;;;;6.28;4.60;;;;;;;17.52;100.00;100801.75;5192777;28;20101;-80
2021/08/30 08:21:34;;;;;;;6.40;4.82;;;;;;;17.47;100.00;100803.00;5182094;28;20507;-80
2021/08/30 08:24:06;;;;;;;7.22;5.00;;;;;;;17.49;100.00;100799.28;5181688;28;20080;-81
2021/08/30 08:26:36;;;;;;;7.47;4.40;;;;;;;17.51;100.00;100804.50;5180244;28;20128;-81
2021/08/30 08:29:07;;;;;;;7.18;4.70;;;;;;;17.47;100.00;100803.81;5189670;28;20073;-80
2021/08/30 08:31:37;;;;;;;5.78;4.32;;;;;;;17.53;100.00;100798.19;5195797;28;20029;-80
2021/08/30 08:34:08;;;;;;;8.43;4.93;;;;;;;17.53;100.00;100802.63;5197187;28;20080;-81
2021/08/30 08:36:39;;;;;;;6.85;4.43;;;;;;;17.55;100.00;100804.22;5199928;28;20062;-81
2021/08/30 08:39:09;;;;;;;7.85;4.65;;;;;;;17.71;100.00;100802.38;5179510;28;20053;-80
2021/08/30 08:41:40;;;;;;;6.85;4.38;;;;;;;17.68;100.00;100805.16;5200431;28;20029;-81
2021/08/30 08:44:10;;;;;;;6.90;4.45;;;;;;;17.54;100.00;100806.94;5179606;28;20550;-81
2021/08/30 08:46:41;;;;;;;4.65;4.05;;;;;;;17.56;100.00;100802.41;5200654;28;20026;-80
2021/08/30 08:49:11;;;;;;;6.97;3.92;;;;;;;17.95;100.00;100805.25;5191506;28;20080;-81
2021/08/30 08:51:41;;;;;;;6.57;3.97;;;;;;;18.11;100.00;100809.53;5174302;28;20032;-80
2021/08/30 08:54:13;;;;;;;6.45;4.28;;;;;;;18.02;100.00;100802.16;5198971;28;20521;-81
2021/08/30 08:56:43;;;;;;;6.63;4.43;;;;;;;18.06;100.00;100803.69;5184982;28;20040;-80
2021/08/30 08:59:14;;;;;;;5.32;3.80;;;;;;;18.11;100.00;100801.59;5174468;28;20029;-80
2021/08/30 09:02:01;;;;;;;5.82;4.07;;;;;;;18.20;100.00;100802.81;5177685;28;20021;-81
2021/08/30 09:04:36;;;;;;;6.93;4.53;;;;;;;18.17;100.00;100795.91;5180507;28;20025;-80
2021/08/30 09:07:09;;;;;;;6.63;4.40;;;;;;;18.18;100.00;100804.69;5202295;28;20040;-81
2021/08/30 09:09:41;;;;;;;6.18;4.15;;;;;;;18.30;100.00;100801.28;5184632;28;20036;-80
2021/08/30 09:12:21;;;;;;;6.50;4.10;;;;;;;18.41;100.00;100812.06;5179026;28;20025;-81
2021/08/30 09:14:52;;;;;;;5.45;3.90;;;;;;;18.46;100.00;100812.59;5191683;28;20174;-80
2021/08/30 09:17:22;;;;;;;7.25;3.85;;;;;;;18.31;100.00;100809.16;5192812;28;20488;-80
2021/08/30 09:19:54;;;;;;;6.53;3.83;;;;;;;18.32;100.00;100808.19;5170608;28;20022;-80
2021/08/30 09:22:31;;;;;;;6.07;3.85;;;;;;;18.16;100.00;100810.06;5172005;28;20026;-80
2021/08/30 09:25:07;;;;;;;5.75;3.92;;;;;;;18.37;100.00;100807.91;5176270;28;20018;-82
2021/08/30 09:27:40;;;;;;;7.28;4.20;;;;;;;18.19;100.00;100809.03;5173347;28;20041;-80
2021/08/30 09:30:12;;;;;;;5.38;3.80;;;;;;;18.48;100.00;100816.03;5185826;28;20049;-80
2021/08/30 09:32:47;;;;;;;6.50;3.70;;;;;;;18.38;100.00;100812.25;5183071;28;20029;-82
2021/08/30 09:35:18;;;;;;;5.85;3.40;;;;;;;18.40;100.00;100805.94;5176418;28;20088;-80
2021/08/30 09:37:49;;;;;;;5.43;3.25;;;;;;;18.08;100.00;100807.06;5180712;28;20034;-80
2021/08/30 09:40:27;;;;;;;6.30;3.13;;;;;;;18.06;99.57;100805.47;5177544;28;20029;-81
2021/08/30 09:43:06;;;;;;;5.65;3.15;;;;;;;18.10;100.00;100805.19;5176999;28;20128;-80
2021/08/30 09:45:44;;;;;;;6.30;3.10;;;;;;;18.11;100.00;100808.66;5179507;28;20029;-82
2021/08/30 09:48:24;;;;;;;4.68;3.00;;;;;;;17.97;100.00;100808.69;5174365;28;20036;-81
2021/08/30 09:51:05;;;;;;;4.00;2.90;;;;;;;18.11;100.00;100817.47;5193186;28;20037;-81
2021/08/30 09:53:36;;;;;;;4.80;3.10;;;;;;;18.18;99.20;100805.53;5188758;28;20041;-81
2021/08/30 09:56:07;;;;;;;4.18;2.83;;;;;;;18.33;99.42;100803.75;5166395;28;20104;-81
2021/08/30 09:58:37;;;;;;;4.05;2.97;;;;;;;18.28;99.29;100809.34;5188276;28;20283;-81
2021/08/30 10:01:13;;;;;;;4.57;3.03;;;;;;;18.32;99.75;100807.38;5185348;28;20488;-81
2021/08/30 10:03:44;;;;;;;;;;;;;;;18.05;100.00;100811.69;5174574;28;20017;-82
2021/08/30 10:06:14;;;;;;;4.28;2.85;;;;;;;18.00;100.00;100814.63;5172374;28;19920;-81
2021/08/30 10:08:45;;;;;;;4.82;3.15;;;;;;;18.15;100.00;100826.06;5196123;28;20040;-80
2021/08/30 10:11:15;;;;;;;4.93;3.40;;;;;;;18.01;100.00;100823.41;5189395;28;20040;-80
2021/08/30 10:13:46;;;;;;;4.15;3.15;;;;;;;18.07;100.00;100815.09;5194080;28;20030;-81
2021/08/30 10:16:18;;;;;;;5.45;3.20;;;;;;;18.02;99.36;100817.19;5173565;28;20148;-81
2021/08/30 10:18:50;;;;;;;4.57;2.90;;;;;;;17.92;98.60;100823.97;5178976;28;20032;-81
2021/08/30 10:21:21;;;;;;;4.22;2.83;;;;;;;17.73;100.00;100820.75;5173072;28;20028;-80
2021/08/30 10:23:51;;;;;;;4.15;2.88;;;;;;;17.56;100.00;100818.28;5178267;28;20018;-81
2021/08/30 10:26:23;;;;;;;6.88;3.00;;;;;;;17.52;100.00;100820.25;5177289;28;20391;-79
2021/08/30 10:28:56;;;;;;;6.25;3.05;;;;;;;17.56;100.00;100826.22;5185326;28;20037;-80
2021/08/30 10:31:26;;;;;;;4.43;2.75;;;;;;;17.47;100.00;100824.13;5195528;28;20053;-80
2021/08/30 10:33:58;;;;;;;5.07;3.20;;;;;;;17.57;100.00;100826.13;5192453;28;20317;-80
2021/08/30 10:36:29;;;;;;;4.72;3.25;;;;;;;17.70;100.00;100823.59;5197439;28;20295;-80
2021/08/30 10:39:08;;;;;;;4.03;2.70;;;;;;;17.77;100.00;100819.63;5196004;28;20073;-80
2021/08/30 10:41:42;;;;;;;3.70;2.55;;;;;;;17.73;100.00;100820.75;5182895;28;20059;-80
2021/08/30 10:44:18;;;;;;;5.07;3.15;;;;;;;17.49;100.00;100822.25;5196438;28;20037;-80
2021/08/30 10:46:51;;;;;;;5.43;2.78;;;;;;;17.59;100.00;100828.66;5194215;28;20055;-80
2021/08/30 10:49:22;;;;;;;4.78;3.00;;;;;;;17.44;100.00;100824.28;5171401;28;20073;-80
2021/08/30 10:52:06;;;;;;;4.30;2.90;;;;;;;17.43;100.00;100828.75;5175087;28;20054;-80
2021/08/30 10:54:53;;;;;;;5.72;3.17;;;;;;;17.47;100.00;100824.13;5195901;28;20219;-80
2021/08/30 10:57:39;;;;;;;4.57;2.80;;;;;;;17.48;100.00;100836.41;5175932;28;20026;-79
2021/08/30 11:00:14;;;;;;;4.03;2.92;;;;;;;17.59;100.00;100831.31;5188110;28;20034;-80
2021/08/30 11:02:49;;;;;;;5.32;2.97;;;;;;;17.65;100.00;100831.78;5201242;28;20036;-80
2021/08/30 11:05:31;;;;;;;3.47;2.55;;;;;;;17.76;100.00;100832.00;5191349;28;20064;-80
2021/08/30 11:08:03;;;;;;;4.50;2.75;;;;;;;17.80;100.00;100838.81;5175307;28;20113;-80
2021/08/30 11:10:36;;;;;;;6.07;3.13;;;;;;;17.83;100.00;100838.59;5199363;28;20037;-80
2021/08/30 11:13:06;;;;;;;3.45;2.58;;;;;;;17.91;100.00;100833.72;5175923;28;20089;-81
2021/08/30 11:15:36;;;;;;;4.30;2.53;;;;;;;17.83;100.00;100832.50;5197478;28;20503;-81
2021/08/30 11:18:07;;;;;;;3.97;2.50;;;;;;;18.06;100.00;100831.91;5174254;28;20089;-80
2021/08/30 11:20:46;;;;;;;4.53;2.53;;;;;;;17.94;99.68;100825.59;5186531;28;20287;-80
2021/08/30 11:23:16;;;;;;;4.00;2.60;;;;;;;17.98;100.00;100832.38;5188941;28;20109;-80
2021/08/30 11:25:47;;;;;;;3.42;2.35;;;;;;;17.93;100.00;100841.53;5193264;28;20507;-80
2021/08/30 11:28:18;;;;;;;3.70;2.40;;;;;;;17.90;100.00;100829.38;5193881;28;20029;-81
2021/08/30 11:30:48;;;;;;;4.70;2.75;;;;;;;17.90;100.00;100839.97;5173843;28;20033;-81
2021/08/30 11:33:23;;;;;;;3.05;2.22;;;;;;;17.90;100.00;100833.81;5195268;28;20045;-80
2021/08/30 11:36:00;;;;;;;4.10;2.80;;;;;;;17.96;100.00;100849.28;5177312;28;20029;-81
2021/08/30 11:38:30;;;;;;;4.57;2.75;;;;;;;17.76;100.00;100847.00;5179829;28;20026;-80